createdAt,value
2018-09-09T00:01:53.843Z,15.50
2018-09-09T00:04:24.425Z,15.48
2018-09-09T00:06:53.025Z,15.40
2018-09-09T00:09:26.789Z,15.40
2018-09-09T00:11:55.743Z,15.42
2018-09-09T00:14:24.944Z,15.52
2018-09-09T00:16:53.555Z,15.64
2018-09-09T00:19:23.195Z,15.67
2018-09-09T00:21:51.790Z,15.69
2018-09-09T00:24:20.395Z,15.68
2018-09-09T00:26:49.002Z,15.73
2018-09-09T00:29:17.613Z,15.73
2018-09-09T00:31:46.220Z,15.64
2018-09-09T00:34:14.877Z,15.59
2018-09-09T00:36:43.542Z,15.55
2018-09-09T00:39:12.146Z,15.50
2018-09-09T00:41:40.724Z,15.40
2018-09-09T00:44:09.341Z,15.32
2018-09-09T00:46:37.949Z,15.26
2018-09-09T00:49:11.818Z,15.25
2018-09-09T00:51:45.585Z,15.21
2018-09-09T00:54:14.232Z,15.20
2018-09-09T00:56:42.849Z,15.20
2018-09-09T00:59:11.478Z,15.17
2018-09-09T01:01:40.039Z,15.10
2018-09-09T01:04:08.640Z,15.07
2018-09-09T01:06:37.222Z,15.03
2018-09-09T01:09:08.002Z,15.01
2018-09-09T01:11:36.605Z,15.02
2018-09-09T01:14:05.520Z,14.97
2018-09-09T01:16:34.213Z,14.94
2018-09-09T01:19:02.824Z,14.88
2018-09-09T01:21:31.465Z,14.80
2018-09-09T01:24:00.216Z,14.84
2018-09-09T01:26:29.701Z,14.88
2018-09-09T01:28:58.727Z,14.85
2018-09-09T01:31:27.390Z,14.95
2018-09-09T01:33:56.131Z,14.89
2018-09-09T01:36:24.699Z,14.79
2018-09-09T01:38:53.337Z,14.69
2018-09-09T01:41:21.958Z,14.63
2018-09-09T01:43:50.577Z,14.65
2018-09-09T01:46:19.225Z,14.62
2018-09-09T01:48:47.818Z,14.57
2018-09-09T01:51:16.393Z,14.54
2018-09-09T01:53:45.013Z,14.51
2018-09-09T01:56:13.628Z,14.47
2018-09-09T01:58:42.266Z,14.44
2018-09-09T02:01:10.900Z,14.43
2018-09-09T02:03:39.537Z,14.40
2018-09-09T02:06:08.213Z,14.36
2018-09-09T02:08:36.847Z,14.48
2018-09-09T02:11:05.487Z,14.50
2018-09-09T02:13:34.751Z,14.51
2018-09-09T02:16:03.394Z,14.51
2018-09-09T02:18:32.146Z,14.55
2018-09-09T02:21:00.724Z,14.56
2018-09-09T02:23:29.318Z,14.45
2018-09-09T02:25:57.988Z,14.39
2018-09-09T02:28:26.560Z,14.35
2018-09-09T02:30:55.148Z,14.29
2018-09-09T02:33:23.906Z,14.23
2018-09-09T02:35:52.513Z,14.26
2018-09-09T02:38:21.176Z,14.23
2018-09-09T02:40:49.797Z,14.29
2018-09-09T02:43:18.403Z,14.31
2018-09-09T02:45:47.073Z,14.50
2018-09-09T02:48:15.686Z,14.72
2018-09-09T02:50:44.293Z,14.76
2018-09-09T02:53:12.866Z,14.72
2018-09-09T02:55:44.469Z,14.70
2018-09-09T02:58:14.729Z,14.61
2018-09-09T03:00:43.345Z,14.58
2018-09-09T03:03:11.930Z,14.50
2018-09-09T03:05:40.813Z,14.38
2018-09-09T03:08:09.570Z,14.28
2018-09-09T03:10:39.815Z,14.33
2018-09-09T03:13:08.418Z,14.35
2018-09-09T03:15:37.174Z,14.43
2018-09-09T03:18:05.807Z,14.55
2018-09-09T03:20:34.461Z,14.51
2018-09-09T03:23:03.085Z,14.45
2018-09-09T03:25:31.672Z,14.37
2018-09-09T03:28:00.305Z,14.41
2018-09-09T03:30:28.906Z,14.36
2018-09-09T03:32:57.504Z,14.33
2018-09-09T03:35:26.104Z,14.25
2018-09-09T03:37:54.677Z,14.26
2018-09-09T03:40:23.310Z,14.17
2018-09-09T03:42:51.906Z,14.12
2018-09-09T03:45:20.541Z,14.08
2018-09-09T03:47:49.183Z,13.99
2018-09-09T03:50:17.773Z,13.93
2018-09-09T03:52:46.490Z,13.84
2018-09-09T03:55:15.102Z,13.81
2018-09-09T03:57:43.726Z,13.88
2018-09-09T04:00:12.330Z,14.09
2018-09-09T04:02:40.978Z,14.03
2018-09-09T04:05:09.581Z,13.91
2018-09-09T04:07:38.270Z,13.82
2018-09-09T04:10:07.112Z,13.88
2018-09-09T04:12:35.670Z,13.87
2018-09-09T04:15:04.313Z,13.86
2018-09-09T04:17:32.929Z,13.87
2018-09-09T04:20:01.527Z,13.81
2018-09-09T04:22:30.143Z,13.75
2018-09-09T04:24:58.822Z,13.74
2018-09-09T04:27:27.417Z,13.75
2018-09-09T04:29:56.065Z,13.86
2018-09-09T04:32:24.659Z,13.88
2018-09-09T04:34:53.366Z,13.88
2018-09-09T04:37:21.994Z,13.82
2018-09-09T04:39:50.606Z,13.78
2018-09-09T04:42:19.299Z,13.78
2018-09-09T04:44:47.907Z,13.79
2018-09-09T04:47:16.531Z,13.85
2018-09-09T04:49:46.098Z,13.91
2018-09-09T04:52:14.723Z,13.95
2018-09-09T04:54:43.325Z,13.97
2018-09-09T04:57:11.934Z,13.99
2018-09-09T04:59:40.586Z,14.02
2018-09-09T05:02:09.191Z,14.09
2018-09-09T05:04:37.840Z,14.17
2018-09-09T05:07:06.441Z,14.28
2018-09-09T05:09:35.059Z,14.37
2018-09-09T05:12:03.689Z,14.44
2018-09-09T05:14:32.357Z,14.53
2018-09-09T05:17:00.997Z,14.68
2018-09-09T05:19:29.614Z,14.88
2018-09-09T05:21:58.227Z,14.95
2018-09-09T05:24:26.827Z,15.05
2018-09-09T05:26:55.481Z,15.18
2018-09-09T05:29:24.087Z,15.17
2018-09-09T05:31:52.695Z,15.23
2018-09-09T05:34:21.350Z,15.29
2018-09-09T05:36:50.589Z,15.43
2018-09-09T05:39:19.266Z,15.51
2018-09-09T05:41:48.630Z,15.53
2018-09-09T05:44:17.226Z,15.60
2018-09-09T05:46:45.796Z,15.74
2018-09-09T05:49:14.390Z,15.92
2018-09-09T05:51:42.996Z,15.97
2018-09-09T05:54:11.615Z,16.11
2018-09-09T05:56:40.235Z,16.14
2018-09-09T05:59:08.878Z,16.30
2018-09-09T06:01:37.485Z,16.36
2018-09-09T06:04:06.130Z,16.47
2018-09-09T06:06:34.760Z,16.50
2018-09-09T06:09:03.619Z,16.62
2018-09-09T06:11:32.205Z,16.68
2018-09-09T06:14:00.840Z,16.85
2018-09-09T06:16:29.450Z,16.87
2018-09-09T06:18:58.121Z,16.93
2018-09-09T06:21:26.764Z,17.06
2018-09-09T06:23:55.359Z,17.08
2018-09-09T06:26:23.969Z,17.21
2018-09-09T06:28:53.815Z,17.38
2018-09-09T06:31:22.402Z,17.44
2018-09-09T06:33:51.096Z,17.49
2018-09-09T06:36:19.680Z,17.59
2018-09-09T06:38:48.299Z,17.71
2018-09-09T06:41:16.916Z,17.85
2018-09-09T06:43:45.494Z,17.96
2018-09-09T06:46:14.129Z,18.08
2018-09-09T06:48:42.769Z,18.23
2018-09-09T06:51:11.448Z,18.39
2018-09-09T06:53:40.018Z,18.52
2018-09-09T06:56:08.670Z,18.68
2018-09-09T06:58:37.483Z,18.73
2018-09-09T07:01:06.250Z,18.82
2018-09-09T07:03:35.454Z,18.91
2018-09-09T07:06:04.280Z,19.03
2018-09-09T07:08:32.894Z,19.15
2018-09-09T07:11:01.701Z,19.30
2018-09-09T07:13:30.177Z,19.30
2018-09-09T07:15:58.808Z,19.45
2018-09-09T07:18:27.424Z,19.57
2018-09-09T07:20:56.329Z,19.55
2018-09-09T07:23:25.214Z,19.64
2018-09-09T07:25:53.823Z,19.76
2018-09-09T07:28:22.458Z,19.95
2018-09-09T07:30:51.042Z,19.93
2018-09-09T07:33:19.727Z,19.93
2018-09-09T07:35:48.464Z,20.00
2018-09-09T07:38:17.076Z,20.02
2018-09-09T07:40:45.761Z,20.06
2018-09-09T07:43:14.415Z,20.05
2018-09-09T07:45:43.052Z,19.96
2018-09-09T07:48:11.677Z,19.93
2018-09-09T07:50:40.419Z,20.11
2018-09-09T07:53:09.038Z,20.26
2018-09-09T07:55:37.685Z,20.27
2018-09-09T07:58:06.886Z,20.40
2018-09-09T08:00:35.622Z,20.43
2018-09-09T08:03:04.345Z,20.62
2018-09-09T08:05:33.067Z,20.69
2018-09-09T08:08:02.835Z,20.77
2018-09-09T08:10:31.422Z,20.82
2018-09-09T08:13:00.220Z,20.89
2018-09-09T08:15:28.857Z,20.75
2018-09-09T08:17:57.513Z,20.90
2018-09-09T08:20:26.570Z,20.94
2018-09-09T08:22:55.754Z,20.97
2018-09-09T08:25:24.775Z,21.07
2018-09-09T08:27:53.807Z,21.04
2018-09-09T08:30:22.442Z,21.30
2018-09-09T08:32:51.344Z,21.39
2018-09-09T08:35:19.977Z,21.64
2018-09-09T08:37:48.603Z,21.67
2018-09-09T08:40:17.232Z,21.64
2018-09-09T08:42:45.897Z,21.61
2018-09-09T08:45:14.558Z,21.65
2018-09-09T08:47:43.347Z,21.93
2018-09-09T08:50:11.958Z,21.88
2018-09-09T08:52:40.591Z,21.88
2018-09-09T08:55:09.225Z,21.87
2018-09-09T08:57:37.907Z,21.85
2018-09-09T09:00:07.606Z,21.86
2018-09-09T09:02:36.250Z,21.99
2018-09-09T09:05:06.046Z,21.96
2018-09-09T09:07:34.787Z,22.16
2018-09-09T09:10:03.362Z,22.24
2018-09-09T09:12:31.985Z,22.12
2018-09-09T09:15:00.636Z,22.18
2018-09-09T09:17:29.261Z,22.20
2018-09-09T09:19:57.910Z,22.31
2018-09-09T09:22:33.307Z,22.51
2018-09-09T09:25:01.954Z,22.58
2018-09-09T09:27:30.509Z,22.49
2018-09-09T09:29:59.540Z,22.56
2018-09-09T09:32:28.191Z,22.70
2018-09-09T09:34:57.103Z,22.63
2018-09-09T09:37:26.477Z,22.78
2018-09-09T09:39:55.921Z,22.84
2018-09-09T09:42:25.243Z,23.00
2018-09-09T09:44:53.929Z,22.92
2018-09-09T09:47:22.557Z,22.99
2018-09-09T09:49:51.163Z,23.06
2018-09-09T09:52:19.997Z,23.16
2018-09-09T09:54:48.619Z,23.21
2018-09-09T09:57:17.239Z,23.26
2018-09-09T09:59:45.897Z,23.34
2018-09-09T10:02:14.626Z,23.52
2018-09-09T10:04:43.268Z,23.52
2018-09-09T10:07:12.760Z,23.61
2018-09-09T10:09:41.380Z,23.75
2018-09-09T10:12:10.706Z,23.75
2018-09-09T10:14:39.320Z,23.85
2018-09-09T10:17:08.001Z,24.01
2018-09-09T10:19:36.766Z,24.24
2018-09-09T10:22:05.419Z,24.30
2018-09-09T10:24:34.066Z,24.41
2018-09-09T10:27:02.705Z,24.46
2018-09-09T10:29:31.382Z,24.59
2018-09-09T10:32:00.003Z,24.43
2018-09-09T10:34:28.615Z,24.52
2018-09-09T10:36:57.708Z,24.56
2018-09-09T10:39:26.319Z,24.61
2018-09-09T10:41:54.926Z,24.71
2018-09-09T10:44:23.514Z,24.66
2018-09-09T10:46:52.211Z,24.60
2018-09-09T10:49:21.985Z,24.64
2018-09-09T10:51:50.654Z,24.66
2018-09-09T10:54:19.307Z,24.81
2018-09-09T10:56:47.939Z,24.60
2018-09-09T10:59:17.709Z,24.73
2018-09-09T11:01:47.038Z,24.80
2018-09-09T11:04:16.612Z,24.71
2018-09-09T11:06:45.484Z,24.54
2018-09-09T11:09:14.465Z,24.40
2018-09-09T11:11:43.274Z,24.59
2018-09-09T11:14:12.103Z,24.51
2018-09-09T11:16:41.212Z,24.76
2018-09-09T11:19:09.923Z,24.79
2018-09-09T11:21:38.710Z,24.88
2018-09-09T11:24:07.584Z,25.07
2018-09-09T11:26:36.355Z,25.01
2018-09-09T11:29:04.977Z,24.93
2018-09-09T11:31:33.685Z,24.90
2018-09-09T11:34:02.397Z,24.94
2018-09-09T11:36:31.058Z,24.98
2018-09-09T11:38:59.656Z,24.78
2018-09-09T11:41:28.327Z,24.71
2018-09-09T11:43:57.675Z,24.90
2018-09-09T11:46:26.315Z,25.01
2018-09-09T11:48:55.000Z,25.17
2018-09-09T11:51:23.625Z,25.54
2018-09-09T11:53:52.238Z,25.15
2018-09-09T11:56:21.587Z,25.45
2018-09-09T11:58:50.223Z,25.54
2018-09-09T12:01:19.102Z,25.80
2018-09-09T12:03:47.743Z,25.90
2018-09-09T12:06:16.367Z,25.69
2018-09-09T12:08:44.978Z,25.27
2018-09-09T12:11:13.590Z,25.40
2018-09-09T12:13:42.239Z,25.84
2018-09-09T12:16:10.869Z,26.07
2018-09-09T12:18:39.590Z,26.17
2018-09-09T12:21:08.342Z,26.30
2018-09-09T12:23:37.037Z,26.44
2018-09-09T12:26:05.609Z,26.51
2018-09-09T12:28:34.262Z,26.21
2018-09-09T12:31:02.832Z,26.34
2018-09-09T12:33:31.465Z,26.51
2018-09-09T12:36:00.098Z,26.48
2018-09-09T12:38:28.724Z,26.50
2018-09-09T12:40:57.370Z,26.59
2018-09-09T12:43:31.153Z,26.57
2018-09-09T12:46:04.881Z,26.58
2018-09-09T12:48:38.655Z,26.36
2018-09-09T12:51:07.282Z,26.17
2018-09-09T12:53:35.902Z,25.98
2018-09-09T12:56:04.563Z,26.42
2018-09-09T12:58:33.256Z,26.70
2018-09-09T13:01:01.937Z,26.92
2018-09-09T13:03:30.545Z,26.79
2018-09-09T13:05:59.182Z,26.88
2018-09-09T13:08:27.805Z,27.12
2018-09-09T13:10:56.595Z,27.31
2018-09-09T13:13:26.296Z,27.68
2018-09-09T13:15:54.965Z,27.54
2018-09-09T13:18:23.590Z,27.41
2018-09-09T13:20:52.202Z,27.74
2018-09-09T13:23:20.836Z,27.97
2018-09-09T13:25:49.514Z,28.31
2018-09-09T13:28:18.158Z,28.58
2018-09-09T13:30:46.808Z,28.48
2018-09-09T13:33:15.475Z,28.51
2018-09-09T13:35:44.094Z,28.33
2018-09-09T13:38:12.770Z,28.56
2018-09-09T13:40:41.433Z,28.57
2018-09-09T13:43:10.112Z,28.24
2018-09-09T13:45:38.757Z,28.02
2018-09-09T13:48:08.152Z,28.18
2018-09-09T13:50:36.814Z,28.50
2018-09-09T13:53:05.602Z,28.92
2018-09-09T13:55:34.373Z,28.36
2018-09-09T13:58:03.004Z,27.99
2018-09-09T14:00:31.659Z,27.56
2018-09-09T14:03:00.290Z,27.87
2018-09-09T14:05:29.259Z,28.40
2018-09-09T14:07:57.878Z,29.31
2018-09-09T14:10:26.501Z,30.37
2018-09-09T14:12:55.107Z,30.56
2018-09-09T14:15:23.806Z,30.92
2018-09-09T14:17:52.416Z,30.22
2018-09-09T14:20:21.033Z,30.42
2018-09-09T14:22:49.625Z,30.12
2018-09-09T14:25:18.254Z,29.67
2018-09-09T14:27:46.911Z,30.90
2018-09-09T14:30:15.531Z,31.84
2018-09-09T14:32:44.158Z,32.04
2018-09-09T14:35:12.763Z,31.93
2018-09-09T14:37:41.391Z,32.85
2018-09-09T14:40:10.205Z,33.23
2018-09-09T14:42:38.809Z,33.61
2018-09-09T14:45:07.509Z,33.22
2018-09-09T14:47:42.628Z,33.45
2018-09-09T14:50:11.269Z,34.60
2018-09-09T14:52:40.298Z,34.92
2018-09-09T14:55:08.940Z,35.39
2018-09-09T14:57:37.653Z,35.17
2018-09-09T15:00:06.336Z,35.34
2018-09-09T15:02:36.118Z,35.53
2018-09-09T15:05:04.758Z,35.44
2018-09-09T15:07:33.954Z,34.95
2018-09-09T15:10:02.638Z,35.85
2018-09-09T15:12:31.226Z,36.00
2018-09-09T15:14:59.850Z,36.40
2018-09-09T15:17:28.496Z,37.00
2018-09-09T15:19:58.180Z,36.96
2018-09-09T15:22:26.792Z,36.36
2018-09-09T15:24:55.454Z,35.21
2018-09-09T15:27:24.089Z,34.48
2018-09-09T15:29:52.689Z,34.45
2018-09-09T15:32:21.277Z,34.74
2018-09-09T15:34:49.946Z,35.18
2018-09-09T15:37:18.567Z,35.39
2018-09-09T15:39:47.194Z,35.60
2018-09-09T15:42:15.793Z,35.77
2018-09-09T15:44:44.433Z,34.11
2018-09-09T15:47:13.053Z,33.68
2018-09-09T15:49:41.650Z,34.21
2018-09-09T15:52:10.359Z,34.13
2018-09-09T15:54:39.894Z,33.91
2018-09-09T15:57:08.533Z,32.01
2018-09-09T15:59:37.952Z,31.05
2018-09-09T16:02:06.758Z,29.62
2018-09-09T16:04:35.584Z,28.71
2018-09-09T16:07:04.259Z,28.26
2018-09-09T16:09:32.998Z,27.61
2018-09-09T16:12:01.698Z,27.12
2018-09-09T16:14:30.350Z,26.65
2018-09-09T16:16:59.075Z,26.27
2018-09-09T16:19:27.720Z,25.75
2018-09-09T16:21:56.400Z,25.53
2018-09-09T16:24:25.088Z,25.19
2018-09-09T16:26:53.690Z,25.04
2018-09-09T16:29:22.325Z,24.99
2018-09-09T16:31:50.960Z,24.94
2018-09-09T16:34:19.613Z,24.77
2018-09-09T16:36:48.282Z,24.74
2018-09-09T16:39:16.945Z,24.55
2018-09-09T16:41:45.608Z,24.59
2018-09-09T16:44:14.359Z,24.48
2018-09-09T16:46:44.016Z,24.54
2018-09-09T16:49:12.637Z,24.55
2018-09-09T16:51:41.282Z,24.64
2018-09-09T16:54:09.979Z,24.80
2018-09-09T16:56:38.642Z,24.75
2018-09-09T16:59:07.316Z,24.49
2018-09-09T17:01:35.973Z,24.37
2018-09-09T17:04:04.613Z,24.19
2018-09-09T17:06:33.222Z,24.09
2018-09-09T17:09:01.872Z,23.85
2018-09-09T17:11:30.510Z,23.66
2018-09-09T17:13:59.113Z,23.48
2018-09-09T17:16:27.806Z,23.45
2018-09-09T17:18:56.397Z,23.25
2018-09-09T17:21:24.994Z,23.12
2018-09-09T17:23:53.584Z,22.98
2018-09-09T17:26:22.212Z,22.94
2018-09-09T17:28:50.870Z,22.82
2018-09-09T17:31:19.490Z,22.65
2018-09-09T17:33:48.598Z,22.54
2018-09-09T17:36:17.218Z,22.41
2018-09-09T17:38:46.253Z,22.31
2018-09-09T17:41:14.910Z,22.13
2018-09-09T17:43:43.579Z,22.05
2018-09-09T17:46:12.297Z,22.01
2018-09-09T17:48:40.979Z,22.08
2018-09-09T17:51:09.747Z,21.95
2018-09-09T17:53:38.489Z,21.80
2018-09-09T17:56:07.151Z,21.68
2018-09-09T17:58:35.756Z,21.56
2018-09-09T18:01:04.457Z,21.40
2018-09-09T18:03:33.105Z,21.26
2018-09-09T18:06:01.761Z,21.15
2018-09-09T18:08:30.350Z,21.01
2018-09-09T18:10:58.998Z,20.91
2018-09-09T18:13:27.625Z,20.88
2018-09-09T18:15:56.306Z,20.97
2018-09-09T18:18:24.986Z,21.05
2018-09-09T18:20:53.767Z,21.06
2018-09-09T18:23:22.471Z,21.13
2018-09-09T18:25:51.287Z,21.25
2018-09-09T18:28:19.926Z,21.10
2018-09-09T18:30:48.523Z,21.02
2018-09-09T18:33:17.421Z,20.94
2018-09-09T18:35:46.847Z,20.74
2018-09-09T18:38:15.550Z,20.58
2018-09-09T18:40:44.538Z,20.41
2018-09-09T18:43:13.305Z,20.27
2018-09-09T18:45:41.957Z,20.14
2018-09-09T18:48:10.744Z,19.97
2018-09-09T18:50:39.396Z,19.89
2018-09-09T18:53:08.597Z,19.81
2018-09-09T18:55:37.198Z,19.78
2018-09-09T18:58:05.867Z,19.72
2018-09-09T19:00:34.463Z,19.73
2018-09-09T19:03:03.115Z,19.84
2018-09-09T19:05:32.021Z,19.83
2018-09-09T19:08:00.654Z,19.80
2018-09-09T19:10:29.434Z,19.80
2018-09-09T19:12:58.091Z,19.83
2018-09-09T19:15:26.775Z,19.87
2018-09-09T19:17:55.526Z,20.02
2018-09-09T19:20:24.146Z,19.98
2018-09-09T19:22:52.758Z,19.97
2018-09-09T19:25:21.400Z,19.89
2018-09-09T19:27:50.059Z,19.86
2018-09-09T19:30:18.798Z,19.81
2018-09-09T19:32:48.323Z,19.83
2018-09-09T19:35:16.926Z,19.71
2018-09-09T19:37:46.339Z,19.69
2018-09-09T19:40:14.987Z,19.67
2018-09-09T19:42:43.675Z,19.64
2018-09-09T19:45:12.364Z,19.66
2018-09-09T19:47:41.033Z,19.64
2018-09-09T19:50:09.667Z,19.55
2018-09-09T19:52:38.352Z,19.51
2018-09-09T19:55:07.094Z,19.46
2018-09-09T19:57:38.097Z,19.36
2018-09-09T20:00:06.853Z,19.30
2018-09-09T20:02:35.513Z,19.32
2018-09-09T20:05:04.181Z,19.28
2018-09-09T20:07:32.854Z,19.28
2018-09-09T20:10:01.661Z,19.29
2018-09-09T20:12:30.303Z,19.28
2018-09-09T20:14:58.982Z,19.31
2018-09-09T20:17:27.681Z,19.26
2018-09-09T20:19:56.311Z,19.20
2018-09-09T20:22:24.978Z,19.13
2018-09-09T20:24:53.612Z,19.10
2018-09-09T20:27:22.891Z,19.11
2018-09-09T20:29:51.454Z,19.14
2018-09-09T20:32:20.103Z,19.08
2018-09-09T20:34:48.741Z,18.96
2018-09-09T20:37:17.461Z,18.94
2018-09-09T20:39:46.166Z,18.94
2018-09-09T20:42:14.891Z,18.93
2018-09-09T20:44:43.520Z,18.90
2018-09-09T20:47:12.145Z,18.86
2018-09-09T20:49:40.766Z,18.83
2018-09-09T20:52:09.373Z,18.89
2018-09-09T20:54:37.953Z,18.81
2018-09-09T20:57:06.587Z,18.76
2018-09-09T20:59:35.227Z,18.64
2018-09-09T21:02:04.016Z,18.56
2018-09-09T21:04:32.718Z,18.57
2018-09-09T21:07:01.320Z,18.57
2018-09-09T21:09:30.011Z,18.57
2018-09-09T21:11:58.591Z,18.59
2018-09-09T21:14:27.197Z,18.50
2018-09-09T21:16:55.826Z,18.48
2018-09-09T21:19:24.415Z,18.52
2018-09-09T21:21:53.049Z,18.46
2018-09-09T21:24:21.636Z,18.46
2018-09-09T21:26:50.242Z,18.44
2018-09-09T21:29:18.851Z,18.38
2018-09-09T21:31:47.422Z,18.33
2018-09-09T21:34:16.056Z,18.35
2018-09-09T21:36:44.651Z,18.23
2018-09-09T21:39:13.250Z,18.17
2018-09-09T21:41:42.369Z,18.17
2018-09-09T21:44:11.008Z,18.09
2018-09-09T21:46:39.581Z,18.07
2018-09-09T21:49:08.538Z,18.08
2018-09-09T21:51:37.117Z,18.08
2018-09-09T21:54:06.055Z,18.08
2018-09-09T21:56:34.719Z,18.08
2018-09-09T21:59:03.929Z,18.07
2018-09-09T22:01:37.736Z,18.05
2018-09-09T22:04:06.339Z,18.06
2018-09-09T22:06:34.977Z,18.00
2018-09-09T22:09:04.525Z,17.95
2018-09-09T22:11:33.223Z,17.91
2018-09-09T22:14:01.828Z,17.85
2018-09-09T22:16:30.468Z,17.79
2018-09-09T22:21:32.803Z,17.66
2018-09-09T22:24:01.402Z,17.59
2018-09-09T22:26:30.013Z,17.53
2018-09-09T22:28:58.605Z,17.46
2018-09-09T22:31:27.174Z,17.43
2018-09-09T22:33:55.769Z,17.46
2018-09-09T22:36:24.377Z,17.41
2018-09-09T22:38:53.003Z,17.44
2018-09-09T22:41:21.601Z,17.35
2018-09-09T22:43:50.238Z,17.23
2018-09-09T22:46:18.837Z,17.16
2018-09-09T22:48:47.447Z,17.14
2018-09-09T22:51:16.058Z,17.11
2018-09-09T22:53:44.650Z,17.12
2018-09-09T22:56:13.444Z,17.07
2018-09-09T22:58:42.126Z,17.06
2018-09-09T23:01:10.762Z,16.98
2018-09-09T23:03:39.369Z,16.92
2018-09-09T23:06:08.023Z,16.82
2018-09-09T23:08:36.630Z,16.80
2018-09-09T23:11:05.281Z,16.74
2018-09-09T23:13:33.968Z,16.72
2018-09-09T23:16:02.556Z,16.66
2018-09-09T23:18:31.234Z,16.64
2018-09-09T23:20:59.826Z,16.59
2018-09-09T23:23:28.428Z,16.54
2018-09-09T23:25:57.283Z,16.47
2018-09-09T23:28:25.893Z,16.37
2018-09-09T23:30:54.479Z,16.29
2018-09-09T23:33:23.048Z,16.29
2018-09-09T23:35:51.639Z,16.19
2018-09-09T23:38:20.225Z,16.12
2018-09-09T23:40:49.110Z,16.04
2018-09-09T23:43:17.862Z,16.00
2018-09-09T23:45:46.450Z,16.00
2018-09-09T23:48:15.045Z,15.93
2018-09-09T23:50:43.658Z,15.87
2018-09-09T23:53:12.262Z,15.85
2018-09-09T23:55:40.883Z,15.84
2018-09-09T23:58:09.498Z,15.81
